Time;durP1;ratioP1;P1;durP2;ratioP2;P2;SDS_P1;SDS_P2;PMS_P1;PMS_P2;Temp;Humidity;BMP_temperature;BMP_pressure;BME280_temperature;BME280_humidity;BME280_pressure;Samples;Min_cycle;Max_cycle;Signal;HPM_P1;HPM_P2
2021/11/08 00:00:57;;;;;;;9.73;2.67;;;;;;;10.66;61.36;101951.34;5018626;28;124187;-76
2021/11/08 00:03:29;;;;;;;12.13;2.60;;;;;;;10.67;61.41;101942.47;5030435;28;116744;-76
2021/11/08 00:06:01;;;;;;;11.27;2.83;;;;;;;10.69;61.37;101940.66;5025728;28;114778;-76
2021/11/08 00:08:28;;;;;;;9.05;2.67;;;;;;;10.70;61.55;101937.09;5029983;27;122997;-76
2021/11/08 00:10:55;;;;;;;10.23;2.53;;;;;;;10.73;61.33;101940.56;5039016;27;122442;-76
2021/11/08 00:13:24;;;;;;;14.48;2.85;;;;;;;10.75;61.48;101944.03;5023065;28;114078;-76
2021/11/08 00:20:54;;;;;;;12.82;3.05;;;;;;;10.78;61.62;101938.66;5024016;28;123863;-76
2021/11/08 00:23:23;;;;;;;10.13;2.70;;;;;;;10.80;61.46;101926.25;5024047;28;115261;-75
2021/11/08 00:25:50;;;;;;;11.73;2.63;;;;;;;10.81;61.57;101938.56;5017764;28;113881;-76
2021/11/08 00:28:19;;;;;;;10.13;2.67;;;;;;;10.81;61.57;101927.97;5021357;28;124005;-76
2021/11/08 00:30:48;;;;;;;11.50;3.17;;;;;;;10.81;61.55;101925.31;5024867;28;127242;-76
2021/11/08 00:33:17;;;;;;;9.07;2.95;;;;;;;10.80;61.48;101923.59;5019423;28;114020;-76
2021/11/08 00:35:50;;;;;;;12.95;2.90;;;;;;;10.80;61.77;101927.09;5028790;28;113957;-75
2021/11/08 00:38:19;;;;;;;9.90;2.72;;;;;;;10.79;61.64;101935.09;5026212;27;123175;-76
2021/11/08 00:40:46;;;;;;;10.75;2.65;;;;;;;10.76;61.62;101940.50;5026097;28;124998;-76
2021/11/08 00:43:15;;;;;;;7.95;2.90;;;;;;;10.75;61.55;101934.31;5022801;28;114496;-76
2021/11/08 00:45:43;;;;;;;12.05;3.20;;;;;;;10.73;61.52;101945.88;5024766;28;114417;-76
2021/11/08 00:48:12;;;;;;;9.25;2.58;;;;;;;10.71;61.38;101943.25;5023603;28;123081;-75
2021/11/08 00:50:40;;;;;;;8.80;2.90;;;;;;;10.68;61.32;101944.22;5020100;28;123529;-76
2021/11/08 00:53:07;;;;;;;9.63;3.28;;;;;;;10.66;61.49;101946.06;5023197;28;114330;-75
2021/11/08 00:55:36;;;;;;;8.13;2.55;;;;;;;10.64;61.45;101947.88;5025801;27;114549;-75
2021/11/08 00:58:03;;;;;;;10.50;3.08;;;;;;;10.63;61.68;101946.13;5018844;28;124447;-76
2021/11/08 01:00:32;;;;;;;12.45;2.90;;;;;;;10.61;61.22;101953.25;5025459;27;123310;-75
2021/11/08 01:03:03;;;;;;;10.68;2.47;;;;;;;10.60;61.25;101959.44;5023927;28;114205;-77
2021/11/08 01:05:30;;;;;;;10.20;2.80;;;;;;;10.58;61.60;101957.75;5025593;28;113366;-76
2021/11/08 01:08:01;;;;;;;12.80;3.20;;;;;;;10.56;61.32;101960.44;5008371;28;124144;-76
2021/11/08 01:10:29;;;;;;;12.15;2.85;;;;;;;10.56;61.83;101971.03;5024128;28;124076;-75
2021/11/08 01:12:56;;;;;;;12.55;2.80;;;;;;;10.57;61.52;101961.31;5064716;22;113759;-64
2021/11/08 01:15:23;;;;;;;8.38;2.70;;;;;;;10.57;61.60;101964.84;5027048;27;114736;-64
2021/11/08 01:17:51;;;;;;;11.30;2.70;;;;;;;10.59;61.68;101964.81;5021864;27;124210;-64
2021/11/08 01:20:21;;;;;;;9.63;2.88;;;;;;;10.59;61.85;101965.66;5023881;27;126210;-64
2021/11/08 01:22:49;;;;;;;11.45;2.65;;;;;;;10.61;62.03;101963.84;5026871;27;114652;-64
2021/11/08 01:25:16;;;;;;;10.43;3.05;;;;;;;10.63;61.92;101966.47;5025832;28;114017;-63
2021/11/08 01:27:44;;;;;;;12.70;2.70;;;;;;;10.63;61.97;101956.72;5020623;28;124037;-64
2021/11/08 01:30:23;;;;;;;13.43;3.08;;;;;;;10.64;61.84;101961.13;5021906;28;123895;-63
2021/11/08 01:33:16;;;;;;;9.55;2.40;;;;;;;10.66;62.05;101959.31;5024550;28;113998;-63
2021/11/08 01:35:45;;;;;;;10.50;2.88;;;;;;;10.66;61.96;101961.94;5028280;28;113168;-63
2021/11/08 01:40:44;;;;;;;11.30;3.58;;;;;;;10.66;61.75;101959.31;5023131;28;124010;-63
2021/11/08 01:43:12;;;;;;;9.90;2.58;;;;;;;10.65;62.12;101946.94;5024886;28;115232;-63
2021/11/08 01:45:40;;;;;;;12.93;2.47;;;;;;;10.66;62.13;101951.34;5022377;28;115527;-63
2021/11/08 01:48:08;;;;;;;7.78;2.35;;;;;;;10.66;61.88;101956.66;5017436;28;123934;-63
2021/11/08 01:50:37;;;;;;;9.02;2.30;;;;;;;10.66;61.96;101966.34;5024683;28;124709;-63
2021/11/08 01:53:05;;;;;;;9.23;2.35;;;;;;;10.65;61.79;101965.50;5030946;28;114646;-63
2021/11/08 01:55:33;;;;;;;10.10;3.03;;;;;;;10.63;61.99;101966.47;5029278;28;114315;-63
2021/11/08 01:58:00;;;;;;;12.13;3.05;;;;;;;10.61;61.84;101963.84;5028160;28;123940;-63
2021/11/08 02:00:29;;;;;;;8.38;2.45;;;;;;;10.61;61.78;101969.16;5019236;28;122346;-63
2021/11/08 02:02:56;;;;;;;12.20;2.42;;;;;;;10.59;61.71;101964.81;5028454;28;114353;-63
2021/11/08 02:05:23;;;;;;;7.57;2.35;;;;;;;10.57;61.89;101978.09;5039695;27;113429;-63
2021/11/08 02:07:51;;;;;;;8.85;2.50;;;;;;;10.55;61.91;101968.44;5036386;27;123114;-63
2021/11/08 02:10:18;;;;;;;10.82;3.13;;;;;;;10.53;61.71;101965.84;5028254;28;124501;-63
2021/11/08 02:12:46;;;;;;;11.85;2.78;;;;;;;10.50;61.61;101971.22;5028198;28;114494;-63
2021/11/08 02:15:18;;;;;;;13.48;2.78;;;;;;;10.48;61.66;101973.03;5019014;28;113102;-63
2021/11/08 02:17:48;;;;;;;11.23;2.63;;;;;;;10.46;61.69;101974.84;5021802;28;123826;-63
2021/11/08 02:20:17;;;;;;;13.20;3.25;;;;;;;10.43;61.80;101970.50;5025569;28;124601;-63
2021/11/08 02:22:46;;;;;;;8.98;2.65;;;;;;;10.41;61.57;101971.44;5025757;28;114339;-63
2021/11/08 02:25:18;;;;;;;11.27;3.03;;;;;;;10.37;61.77;101980.38;5032062;27;114110;-63
2021/11/08 02:27:45;;;;;;;11.55;2.58;;;;;;;10.33;61.63;101975.16;5027936;28;123964;-63
2021/11/08 02:30:14;;;;;;;8.35;2.83;;;;;;;10.31;61.70;101970.81;5026125;27;122988;-63
2021/11/08 02:32:42;;;;;;;8.85;2.90;;;;;;;10.28;61.66;101966.47;5011593;28;115519;-63
2021/11/08 02:35:14;;;;;;;15.15;2.97;;;;;;;10.25;61.91;101977.13;5021097;28;115038;-63
2021/11/08 02:37:42;;;;;;;9.48;2.60;;;;;;;10.21;61.52;101975.47;5030910;28;124797;-63
2021/11/08 02:40:18;;;;;;;9.65;3.03;;;;;;;10.18;61.70;101972.88;5018085;28;123791;-63
2021/11/08 02:42:48;;;;;;;8.38;2.90;;;;;;;10.16;61.66;101980.00;5011642;28;114268;-63
2021/11/08 02:45:17;;;;;;;9.45;3.40;;;;;;;10.13;61.80;101977.41;5010263;28;113994;-63
2021/11/08 02:47:47;;;;;;;11.07;2.78;;;;;;;10.12;62.03;101975.69;5012939;28;124831;-63
2021/11/08 02:50:17;;;;;;;12.98;3.40;;;;;;;10.10;61.91;101993.38;5018563;28;124469;-63
2021/11/08 02:52:45;;;;;;;11.65;3.00;;;;;;;10.08;61.97;101979.31;5014972;28;114525;-63
2021/11/08 02:55:16;;;;;;;12.05;3.53;;;;;;;10.05;61.93;101979.38;5019929;28;113842;-63
2021/11/08 02:57:43;;;;;;;9.13;3.20;;;;;;;10.02;61.86;101979.44;5022327;28;124217;-64
2021/11/08 03:00:13;;;;;;;10.48;3.47;;;;;;;10.00;61.88;101975.97;5017290;28;124002;-63
2021/11/08 03:02:41;;;;;;;12.05;3.55;;;;;;;9.98;61.96;101983.09;5017828;28;114382;-63
2021/11/08 03:05:12;;;;;;;13.00;3.33;;;;;;;9.94;61.98;101980.53;5031677;28;113800;-63
2021/11/08 03:07:40;;;;;;;10.20;3.35;;;;;;;9.91;61.66;101967.38;5031613;28;123851;-63
2021/11/08 03:10:18;;;;;;;14.43;3.40;;;;;;;9.88;61.79;101972.72;5010172;27;123557;-63
2021/11/08 03:12:46;;;;;;;9.65;3.50;;;;;;;9.85;61.76;101972.81;5011651;28;114256;-63
2021/11/08 03:15:26;;;;;;;12.10;3.83;;;;;;;9.84;61.96;101981.63;5017173;28;114007;-63
2021/11/08 03:18:03;;;;;;;11.57;3.47;;;;;;;9.81;62.20;101992.28;5020104;27;122918;-63
2021/11/08 03:20:30;;;;;;;12.85;3.60;;;;;;;9.80;61.96;101985.28;5019130;28;123807;-63
2021/11/08 03:23:02;;;;;;;13.50;3.80;;;;;;;9.77;61.84;101980.03;5033499;28;114172;-63
2021/11/08 03:28:03;;;;;;;14.38;4.20;;;;;;;9.74;62.23;101974.84;5035145;28;124398;-63
2021/11/08 03:30:37;;;;;;;12.15;3.70;;;;;;;9.73;61.91;101983.66;5031593;28;124385;-63
2021/11/08 03:33:10;;;;;;;10.55;3.80;;;;;;;9.70;61.89;101989.03;5035851;28;114335;-63
2021/11/08 03:35:39;;;;;;;13.95;4.20;;;;;;;9.70;62.18;101989.03;5033834;28;113972;-63
2021/11/08 03:38:10;;;;;;;14.75;4.07;;;;;;;9.69;62.11;101992.59;5032353;28;124293;-63
2021/11/08 03:40:40;;;;;;;16.90;4.30;;;;;;;9.67;62.04;101989.13;5033454;27;122684;-63
2021/11/08 03:43:11;;;;;;;12.25;4.05;;;;;;;9.66;62.26;101992.66;5035809;28;114600;-63
2021/11/08 03:45:40;;;;;;;11.82;3.80;;;;;;;9.65;62.19;101990.91;5031568;28;114319;-63
2021/11/08 03:48:11;;;;;;;14.90;4.13;;;;;;;9.63;62.15;101992.72;5033012;28;124776;-63
2021/11/08 03:50:39;;;;;;;13.77;3.90;;;;;;;9.62;61.86;101996.28;5033343;27;122772;-63
2021/11/08 03:53:07;;;;;;;14.65;4.15;;;;;;;9.60;62.32;101998.94;5021189;28;114916;-63
2021/11/08 03:55:35;;;;;;;16.13;4.45;;;;;;;9.60;62.33;101998.09;5030746;28;114124;-63
2021/11/08 03:58:02;;;;;;;10.73;3.50;;;;;;;9.57;62.09;102003.44;5027686;28;123867;-63
2021/11/08 04:00:29;;;;;;;15.80;4.32;;;;;;;9.55;62.04;101998.19;5021847;28;124735;-63
2021/11/08 04:02:58;;;;;;;18.88;4.45;;;;;;;9.54;62.03;102002.59;5034716;28;114567;-63
2021/11/08 04:05:28;;;;;;;14.40;4.10;;;;;;;9.53;62.27;102003.50;5032512;28;113827;-63
2021/11/08 04:08:04;;;;;;;13.93;3.80;;;;;;;9.52;62.21;102012.34;5031632;28;123858;-63
2021/11/08 04:10:32;;;;;;;14.85;4.25;;;;;;;9.51;62.33;102010.63;5010810;28;124034;-63
2021/11/08 04:13:05;;;;;;;11.38;3.95;;;;;;;9.51;62.38;102010.63;5013868;28;115060;-63
2021/11/08 04:15:40;;;;;;;13.57;3.72;;;;;;;9.50;62.24;102014.16;5013684;28;114959;-63
2021/11/08 04:18:11;;;;;;;13.83;3.80;;;;;;;9.48;62.13;102015.97;5013703;28;124376;-63
2021/11/08 04:20:41;;;;;;;15.10;4.20;;;;;;;9.47;62.25;102024.78;5037794;27;122808;-63
2021/11/08 04:23:11;;;;;;;11.50;4.22;;;;;;;9.47;62.50;102024.78;5027678;28;114545;-63
2021/11/08 04:25:39;;;;;;;18.63;4.32;;;;;;;9.46;62.63;102017.78;5026588;28;114289;-63
2021/11/08 04:28:06;;;;;;;11.80;3.90;;;;;;;9.46;62.35;102017.78;5020152;28;124803;-63
2021/11/08 04:30:37;;;;;;;20.35;4.57;;;;;;;9.46;62.24;102027.50;5028699;28;122996;-63
2021/11/08 04:41:07;;;;;;;12.68;4.78;;;;;;;9.41;62.40;102019.63;5031661;28;122708;-63
2021/11/08 04:43:58;;;;;;;14.02;4.22;;;;;;;9.41;62.45;102024.91;5034705;28;114708;-63
2021/11/08 04:49:20;;;;;;;14.20;4.53;;;;;;;9.39;62.50;102026.72;5032871;27;123480;-64
2021/11/08 05:21:56;;;;;;;17.90;4.57;;;;;;;9.25;62.55;102039.34;5013910;28;123848;-63
2021/11/08 05:30:14;;;;;;;;;;;;;;;9.21;62.48;102053.53;5008526;28;114253;-63
2021/11/08 05:32:46;;;;;;;13.05;4.53;;;;;;;9.24;62.73;102053.50;5011017;27;125175;-63
2021/11/08 05:35:15;;;;;;;18.05;4.25;;;;;;;9.26;62.63;102059.63;5010441;28;124004;-63
2021/11/08 05:37:44;;;;;;;11.48;4.22;;;;;;;9.27;62.67;102056.94;5032820;28;114415;-63
2021/11/08 05:40:17;;;;;;;13.27;4.10;;;;;;;9.28;62.77;102060.44;5029180;28;113964;-63
2021/11/08 05:42:44;;;;;;;12.95;4.38;;;;;;;9.31;62.90;102055.09;5032392;28;124001;-63
2021/11/08 05:45:15;;;;;;;13.70;4.70;;;;;;;9.34;62.74;102060.31;5031825;28;124698;-63
2021/11/08 05:47:44;;;;;;;14.65;4.90;;;;;;;9.37;63.32;102065.56;5030197;28;114405;-63
2021/11/08 05:50:13;;;;;;;14.20;4.47;;;;;;;9.43;63.37;102065.41;5033042;28;114603;-64
2021/11/08 05:52:42;;;;;;;15.20;4.75;;;;;;;9.48;62.96;102068.84;5015681;28;123885;-63
2021/11/08 05:55:10;;;;;;;17.58;4.57;;;;;;;9.51;63.03;102068.78;5020250;28;123917;-63
2021/11/08 06:50:35;;;;;;;15.35;5.07;;;;;;;10.15;63.15;102097.38;5026874;28;125297;-63
2021/11/08 06:53:06;;;;;;;19.42;5.43;;;;;;;10.18;63.13;102102.59;5031937;28;115564;-63
2021/11/08 06:55:35;;;;;;;16.17;4.80;;;;;;;10.21;63.60;102107.84;5029982;28;114840;-64
2021/11/08 06:58:04;;;;;;;15.15;4.97;;;;;;;10.23;63.45;102111.31;5030841;28;123025;-63
2021/11/08 07:00:31;;;;;;;13.95;4.82;;;;;;;10.27;63.47;102107.69;5029941;28;123003;-64
2021/11/08 07:02:59;;;;;;;12.75;4.63;;;;;;;10.30;63.32;102104.09;5032107;28;114557;-64
2021/11/08 07:05:26;;;;;;;15.60;4.78;;;;;;;10.33;63.39;102112.88;5029727;28;114689;-63
2021/11/08 07:07:53;;;;;;;17.55;5.00;;;;;;;10.36;63.31;102116.34;5030268;28;124065;-63
2021/11/08 07:10:21;;;;;;;15.05;4.95;;;;;;;10.39;63.47;102116.28;5030330;28;123874;-63
2021/11/08 07:12:50;;;;;;;15.85;4.80;;;;;;;10.42;63.56;102121.53;5031165;28;113225;-64
2021/11/08 07:15:19;;;;;;;16.52;4.78;;;;;;;10.45;63.32;102121.44;5029761;28;113999;-63
2021/11/08 07:17:47;;;;;;;16.05;4.88;;;;;;;10.48;63.54;102124.00;5031781;28;124352;-63
2021/11/08 07:20:15;;;;;;;16.88;5.53;;;;;;;10.51;63.28;102121.31;5022687;28;123241;-64
2021/11/08 07:22:43;;;;;;;14.02;5.65;;;;;;;10.55;63.19;102127.38;5025571;28;114493;-63
2021/11/08 07:25:10;;;;;;;15.65;4.53;;;;;;;10.57;63.26;102126.44;5029495;28;114009;-63
2021/11/08 07:27:38;;;;;;;16.30;5.07;;;;;;;10.60;63.45;102126.34;5031623;28;123923;-63
2021/11/08 07:30:07;;;;;;;17.50;5.03;;;;;;;10.62;63.47;102132.47;5031123;28;124505;-63
2021/11/08 07:32:34;;;;;;;18.00;5.07;;;;;;;10.65;63.22;102129.75;5031833;28;114080;-63
2021/11/08 07:35:02;;;;;;;15.70;4.70;;;;;;;10.68;63.06;102128.81;5029804;28;113918;-63
2021/11/08 07:37:29;;;;;;;17.58;4.78;;;;;;;10.70;63.30;102130.53;5020600;28;124778;-63
2021/11/08 07:39:57;;;;;;;14.88;5.25;;;;;;;10.76;63.39;102136.59;5018885;28;124614;-63
2021/11/08 07:42:24;;;;;;;18.17;4.60;;;;;;;10.78;63.34;102130.34;5027792;28;115887;-63
2021/11/08 07:44:51;;;;;;;17.92;5.20;;;;;;;10.81;63.45;102142.63;5021377;28;115303;-63
2021/11/08 07:47:19;;;;;;;17.10;5.13;;;;;;;10.84;63.40;102142.56;5022963;28;124408;-63
2021/11/08 07:49:46;;;;;;;16.25;5.43;;;;;;;10.86;63.37;102144.25;5025981;28;124652;-63
2021/11/08 07:52:14;;;;;;;18.33;5.05;;;;;;;10.90;63.47;102147.69;5021112;28;114286;-63
2021/11/08 07:54:42;;;;;;;14.27;4.78;;;;;;;10.93;63.58;102150.28;5024829;28;113001;-63
2021/11/08 07:57:09;;;;;;;23.08;5.75;;;;;;;10.96;63.48;102158.13;5023263;28;123834;-63
2021/11/08 07:59:36;;;;;;;14.98;5.22;;;;;;;11.00;63.55;102162.47;5027376;28;123002;-63
2021/11/08 08:02:04;;;;;;;14.38;4.95;;;;;;;11.03;63.69;102172.97;5028589;27;113460;-63
2021/11/08 08:04:32;;;;;;;17.50;5.10;;;;;;;11.07;63.35;102168.47;5028481;28;114107;-63
2021/11/08 08:07:00;;;;;;;21.17;5.10;;;;;;;11.10;63.28;102166.63;5024008;28;123855;-63
2021/11/08 08:09:27;;;;;;;16.20;5.22;;;;;;;11.13;63.49;102167.44;5020464;28;123723;-63
2021/11/08 08:11:54;;;;;;;15.93;4.93;;;;;;;11.16;63.52;102173.53;5028552;28;115099;-63
2021/11/08 08:14:22;;;;;;;15.10;5.13;;;;;;;11.20;63.59;102176.97;5028731;28;114559;-63
2021/11/08 08:16:49;;;;;;;15.85;5.05;;;;;;;11.23;63.54;102175.13;5032825;28;124752;-63
2021/11/08 08:19:16;;;;;;;18.15;5.88;;;;;;;11.28;63.51;102183.84;5030815;28;124282;-63
2021/11/08 08:21:44;;;;;;;20.70;5.13;;;;;;;11.31;63.29;102177.56;5029853;28;114271;-63
2021/11/08 08:24:12;;;;;;;16.23;5.40;;;;;;;11.34;63.43;102182.81;5031949;28;112996;-63
2021/11/08 08:26:41;;;;;;;19.60;5.22;;;;;;;11.38;63.49;102184.47;5023797;28;123934;-63
2021/11/08 08:29:10;;;;;;;16.60;4.93;;;;;;;11.41;63.30;102192.31;5024236;28;124329;-63
2021/11/08 08:31:41;;;;;;;17.45;4.97;;;;;;;11.47;63.40;102199.25;5030316;28;115813;-63
2021/11/08 08:34:10;;;;;;;18.02;5.03;;;;;;;11.49;63.12;102198.31;5033662;28;114851;-63
2021/11/08 08:36:39;;;;;;;16.25;4.95;;;;;;;11.55;63.53;102196.41;5024605;28;124192;-64
2021/11/08 08:39:08;;;;;;;16.60;5.32;;;;;;;11.59;63.26;102203.38;5022222;28;123866;-63
2021/11/08 08:41:36;;;;;;;12.68;5.13;;;;;;;11.64;63.36;102196.13;5024661;28;114614;-64
2021/11/08 08:44:04;;;;;;;20.35;5.60;;;;;;;11.68;63.26;102195.16;5029177;28;114331;-64
2021/11/08 08:46:31;;;;;;;14.65;5.07;;;;;;;11.73;63.39;102201.19;5029785;27;122976;-63
2021/11/08 08:48:59;;;;;;;20.13;5.25;;;;;;;11.79;63.39;102209.00;5027556;28;124199;-63
2021/11/08 08:51:26;;;;;;;11.65;5.53;;;;;;;11.82;63.33;102211.53;5029731;28;113510;-63
2021/11/08 08:53:54;;;;;;;19.88;5.75;;;;;;;11.86;63.25;102213.19;5017247;28;114152;-63
2021/11/08 08:56:22;;;;;;;13.60;5.32;;;;;;;11.91;63.30;102204.28;5017918;28;124861;-63
2021/11/08 08:58:54;;;;;;;16.45;5.07;;;;;;;11.95;63.49;102216.53;5023732;28;124839;-63
2021/11/08 09:01:24;;;;;;;14.85;5.22;;;;;;;11.99;63.05;102224.38;5030388;28;114471;-63
2021/11/08 09:03:52;;;;;;;18.35;5.32;;;;;;;12.05;63.30;102240.16;5025355;27;112825;-63
2021/11/08 09:06:20;;;;;;;21.02;5.50;;;;;;;12.09;63.01;102219.66;5016429;28;124638;-63
2021/11/08 09:08:48;;;;;;;15.98;5.65;;;;;;;12.15;63.15;102230.13;5014733;28;124657;-63
2021/11/08 09:11:16;;;;;;;16.17;5.40;;;;;;;12.20;63.14;102235.28;5025199;28;114208;-63
2021/11/08 09:13:45;;;;;;;14.32;4.72;;;;;;;12.23;63.20;102233.41;5031791;27;113200;-63
2021/11/08 09:16:12;;;;;;;17.42;5.28;;;;;;;12.29;63.03;102231.50;5024281;28;124128;-63
2021/11/08 09:18:48;;;;;;;19.17;5.00;;;;;;;12.33;63.08;102227.81;5027592;28;124454;-63
2021/11/08 09:21:17;;;;;;;14.43;5.18;;;;;;;12.38;63.00;102232.09;5016892;28;116530;-63
2021/11/08 09:23:46;;;;;;;14.07;5.13;;;;;;;12.42;62.96;102232.88;5032720;27;113949;-63
2021/11/08 09:26:14;;;;;;;15.88;5.60;;;;;;;12.46;62.84;102229.19;5022464;28;124120;-63
2021/11/08 09:28:42;;;;;;;17.73;5.65;;;;;;;12.51;62.92;102221.94;5033645;28;123949;-63
2021/11/08 09:31:10;;;;;;;17.15;4.72;;;;;;;12.55;62.92;102223.59;5029122;28;114581;-63
2021/11/08 09:33:38;;;;;;;15.32;4.90;;;;;;;12.60;62.93;102221.66;5026259;27;113046;-63
2021/11/08 09:36:08;;;;;;;15.30;4.57;;;;;;;12.63;63.05;102223.34;5019680;28;123411;-63
2021/11/08 09:38:48;;;;;;;14.65;4.60;;;;;;;12.65;62.73;102219.72;5018584;28;122963;-63
2021/11/08 09:41:18;;;;;;;11.30;4.15;;;;;;;12.70;62.79;102226.69;5020937;28;114514;-64
2021/11/08 09:43:46;;;;;;;17.92;5.05;;;;;;;12.73;62.90;102227.44;5021683;28;114067;-64
2021/11/08 09:46:13;;;;;;;14.25;4.70;;;;;;;12.79;62.69;102223.72;5021553;28;124359;-64
2021/11/08 09:48:41;;;;;;;16.08;5.97;;;;;;;12.81;62.68;102224.56;5018907;28;123622;-64
2021/11/08 09:51:11;;;;;;;13.90;4.93;;;;;;;12.85;62.56;102227.06;5028909;28;114395;-63
2021/11/08 09:53:40;;;;;;;16.58;5.22;;;;;;;12.88;62.50;102236.72;5025573;27;113595;-63
2021/11/08 09:56:09;;;;;;;8.85;4.35;;;;;;;12.90;62.46;102234.88;5021447;28;124314;-63
2021/11/08 09:58:57;;;;;;;20.83;4.80;;;;;;;12.91;62.43;102236.63;5024333;28;123928;-64
2021/11/08 10:01:44;;;;;;;16.42;4.47;;;;;;;12.92;62.43;102230.41;5017334;28;114126;-63
2021/11/08 10:04:11;;;;;;;15.73;4.35;;;;;;;12.94;62.17;102231.22;5021155;28;114080;-63
2021/11/08 10:06:40;;;;;;;15.77;4.75;;;;;;;12.96;62.13;102240.03;5019672;28;123958;-63
2021/11/08 10:09:10;;;;;;;10.48;4.00;;;;;;;12.97;62.38;102240.88;5021531;28;123905;-63
2021/11/08 10:11:38;;;;;;;12.20;4.88;;;;;;;12.98;62.28;102238.19;5018163;28;115691;-63
2021/11/08 10:14:08;;;;;;;16.75;4.70;;;;;;;13.01;62.42;102237.19;5014370;28;114213;-63
2021/11/08 10:16:38;;;;;;;20.38;4.97;;;;;;;13.07;62.55;102230.81;5017589;28;123879;-63
2021/11/08 10:19:09;;;;;;;15.35;4.45;;;;;;;13.11;62.28;102232.44;5021079;28;123924;-63
2021/11/08 10:21:46;;;;;;;13.23;4.97;;;;;;;13.17;62.41;102232.25;5020412;28;114269;-63
2021/11/08 10:24:17;;;;;;;16.88;5.03;;;;;;;13.24;62.33;102239.06;5015627;28;114359;-63
2021/11/08 10:26:45;;;;;;;15.90;4.70;;;;;;;13.29;62.11;102237.13;5018514;27;124114;-63
2021/11/08 10:29:17;;;;;;;14.50;5.13;;;;;;;13.33;62.30;102238.81;5024141;28;124374;-63
2021/11/08 10:32:07;;;;;;;19.23;5.82;;;;;;;13.38;62.46;102242.19;5016340;28;114154;-63
2021/11/08 10:34:43;;;;;;;18.27;5.53;;;;;;;13.41;62.17;102252.75;5019055;28;114394;-63
2021/11/08 10:37:11;;;;;;;17.13;5.25;;;;;;;13.45;62.11;102248.19;5028881;28;123879;-63
2021/11/08 10:39:40;;;;;;;15.50;5.43;;;;;;;13.51;62.17;102247.09;5031349;28;123641;-63
2021/11/08 10:42:21;;;;;;;12.93;4.90;;;;;;;13.54;62.04;102241.66;5030932;28;114095;-64
2021/11/08 10:44:49;;;;;;;17.13;4.60;;;;;;;13.58;61.86;102243.28;5018876;28;114069;-64
2021/11/08 10:47:20;;;;;;;15.18;4.53;;;;;;;13.61;61.90;102251.16;5014916;28;123885;-63
2021/11/08 10:49:48;;;;;;;13.57;4.60;;;;;;;13.66;61.93;102248.34;5016242;28;123946;-63
2021/11/08 10:52:18;;;;;;;17.33;5.20;;;;;;;13.72;61.76;102243.66;5030466;28;113077;-63
2021/11/08 10:54:53;;;;;;;14.68;4.40;;;;;;;13.76;61.77;102253.28;5011425;28;114350;-64
2021/11/08 10:57:24;;;;;;;12.98;4.47;;;;;;;13.81;61.61;102242.47;4995028;28;123922;-64
2021/11/08 10:59:53;;;;;;;17.90;4.57;;;;;;;13.85;61.70;102237.91;5031002;28;123985;-64
2021/11/08 11:02:26;;;;;;;18.33;5.00;;;;;;;13.90;61.65;102242.16;5030331;27;114501;-64
2021/11/08 11:05:02;;;;;;;13.60;4.75;;;;;;;13.97;61.69;102245.44;5023998;28;114794;-64
2021/11/08 11:07:37;;;;;;;17.85;4.80;;;;;;;14.04;61.66;102244.28;5009052;28;125559;-64
2021/11/08 11:10:06;;;;;;;14.13;4.88;;;;;;;14.08;61.49;102232.59;5024958;28;124576;-64
2021/11/08 11:12:34;;;;;;;16.95;4.80;;;;;;;14.13;61.32;102229.75;5023950;28;114919;-64
2021/11/08 11:15:08;;;;;;;13.65;4.38;;;;;;;14.16;61.34;102225.16;5028134;28;113952;-64
2021/11/08 11:17:49;;;;;;;16.08;4.60;;;;;;;14.20;61.36;102226.81;5022016;27;123434;-64
2021/11/08 11:20:16;;;;;;;13.93;4.35;;;;;;;14.25;61.29;102213.28;5019379;28;123637;-64
2021/11/08 11:23:04;;;;;;;12.73;4.25;;;;;;;14.30;61.18;102218.47;5017937;28;114070;-65
2021/11/08 11:25:34;;;;;;;14.52;4.78;;;;;;;14.35;61.16;102219.13;5019766;28;114196;-64
2021/11/08 11:28:01;;;;;;;12.55;4.20;;;;;;;14.41;61.13;102224.25;5020562;28;124859;-64
2021/11/08 11:30:42;;;;;;;12.68;4.20;;;;;;;14.46;61.05;102222.25;5026107;27;123403;-64
2021/11/08 11:33:36;;;;;;;14.63;4.13;;;;;;;14.53;61.09;102221.09;5020816;28;114086;-64
2021/11/08 11:36:12;;;;;;;14.77;4.18;;;;;;;14.60;60.97;102225.28;5024552;27;114275;-64
2021/11/08 11:38:44;;;;;;;10.40;4.25;;;;;;;14.67;60.81;102231.22;5033245;28;123088;-64
2021/11/08 11:41:19;;;;;;;13.55;4.63;;;;;;;14.76;60.84;102224.66;5032741;28;123216;-65
2021/11/08 11:43:52;;;;;;;13.43;4.10;;;;;;;14.85;60.76;102226.97;5020643;28;114174;-64
2021/11/08 11:46:22;;;;;;;15.73;4.15;;;;;;;14.94;60.66;102229.25;5022393;28;114199;-64
2021/11/08 11:48:51;;;;;;;21.67;4.40;;;;;;;15.02;60.31;102236.06;5020617;28;124709;-64
2021/11/08 11:51:22;;;;;;;13.88;4.35;;;;;;;15.06;60.16;102227.00;5024148;28;124775;-64
2021/11/08 11:53:51;;;;;;;13.70;4.00;;;;;;;15.09;59.97;102222.41;5026687;28;115190;-64
2021/11/08 11:56:20;;;;;;;16.20;4.20;;;;;;;15.13;59.81;102223.16;5025811;28;114941;-64
2021/11/08 11:58:48;;;;;;;12.73;4.30;;;;;;;15.17;59.88;102222.94;5019786;28;124393;-65
2021/11/08 12:01:19;;;;;;;17.10;4.53;;;;;;;15.25;59.71;102227.97;5023895;27;123142;-64
2021/11/08 12:03:46;;;;;;;12.82;4.30;;;;;;;15.32;59.61;102218.75;5018379;28;114112;-64
2021/11/08 12:06:17;;;;;;;14.02;5.07;;;;;;;15.36;59.21;102220.34;5021400;27;113061;-64
2021/11/08 12:08:46;;;;;;;13.27;4.35;;;;;;;15.40;59.37;102221.09;5020876;28;122619;-64
2021/11/08 12:11:14;;;;;;;15.95;4.25;;;;;;;15.45;59.08;102226.25;5024252;28;124130;-64
2021/11/08 12:13:54;;;;;;;14.27;4.40;;;;;;;15.50;59.14;102232.25;5014655;28;114172;-64
2021/11/08 12:16:26;;;;;;;14.38;4.22;;;;;;;15.53;58.95;102226.78;5021807;28;114018;-64
2021/11/08 12:18:59;;;;;;;11.57;4.60;;;;;;;15.57;58.92;102239.06;5023230;28;124776;-64
2021/11/08 12:21:32;;;;;;;16.08;4.90;;;;;;;15.61;58.86;102237.97;5018705;28;123868;-64
2021/11/08 12:24:13;;;;;;;13.48;4.70;;;;;;;15.63;58.73;102233.44;5034030;28;114192;-65
2021/11/08 12:26:41;;;;;;;11.13;4.25;;;;;;;15.67;58.71;102240.41;5025266;28;114377;-64
2021/11/08 12:29:17;;;;;;;18.20;5.05;;;;;;;15.67;58.37;102240.41;5016811;28;124124;-64
2021/11/08 12:31:59;;;;;;;13.65;4.57;;;;;;;15.66;58.35;102244.00;5028148;28;123911;-64
2021/11/08 12:34:26;;;;;;;15.02;4.70;;;;;;;15.65;58.30;102223.56;5011905;28;114661;-64
2021/11/08 12:37:02;;;;;;;14.82;4.15;;;;;;;15.62;58.36;102229.03;5012596;28;114636;-64
2021/11/08 12:39:30;;;;;;;15.55;4.88;;;;;;;15.64;58.25;102231.66;5012626;28;125148;-64
2021/11/08 12:42:02;;;;;;;11.65;4.03;;;;;;;15.63;58.18;102228.09;5012312;28;123761;-64
2021/11/08 12:44:35;;;;;;;13.55;4.03;;;;;;;15.66;58.24;102227.97;5032330;28;115343;-64
2021/11/08 12:47:04;;;;;;;14.57;4.78;;;;;;;15.68;58.10;102226.09;5027074;28;115076;-64
2021/11/08 12:49:36;;;;;;;16.00;4.72;;;;;;;15.69;57.90;102226.94;5024205;28;124066;-64
2021/11/08 12:52:03;;;;;;;17.45;4.40;;;;;;;15.71;58.08;102225.97;5021242;28;122971;-64
2021/11/08 12:54:43;;;;;;;13.65;3.90;;;;;;;15.75;58.06;102216.91;5029149;28;114522;-64
2021/11/08 12:57:12;;;;;;;14.13;4.25;;;;;;;15.75;57.86;102222.25;5031231;28;114012;-64
2021/11/08 12:59:55;;;;;;;13.15;4.28;;;;;;;15.75;57.71;102211.56;5031318;28;124820;-64
2021/11/08 13:02:25;;;;;;;13.20;3.83;;;;;;;15.78;57.66;102210.56;5032866;28;122773;-64
2021/11/08 13:04:59;;;;;;;13.18;4.70;;;;;;;15.79;57.63;102201.63;5027179;28;114856;-64
2021/11/08 13:07:34;;;;;;;14.40;4.32;;;;;;;15.80;57.28;102197.13;5011612;28;114282;-64
2021/11/08 13:10:05;;;;;;;12.57;4.35;;;;;;;15.83;57.44;102192.53;5029161;28;123956;-64
2021/11/08 13:12:41;;;;;;;15.48;4.25;;;;;;;15.90;57.49;102195.78;5033488;28;123936;-64
2021/11/08 13:15:12;;;;;;;15.63;3.97;;;;;;;15.94;57.36;102189.38;5016783;28;114152;-64